Time;durP1;ratioP1;P1;durP2;ratioP2;P2;SDS_P1;SDS_P2;PMS_P1;PMS_P2;Temp;Humidity;BMP_temperature;BMP_pressure;BME280_temperature;BME280_humidity;BME280_pressure;Samples;Min_cycle;Max_cycle;Signal;HPM_P1;HPM_P2
2021/01/10 00:02:15;;;;;;;;;;;;;;;1.48;100.00;100656.19;5054734;28;19924;-78
2021/01/10 00:04:42;;;;;;;;;;;;;;;1.61;100.00;100666.22;5054980;28;19996;-78
2021/01/10 00:07:08;;;;;;;;;;;;;;;1.72;100.00;100656.47;5021576;28;20372;-78
2021/01/10 00:09:35;;;;;;;;;;;;;;;1.69;100.00;100656.31;5054859;28;19994;-79
2021/01/10 00:12:01;;;;;;;;;;;;;;;1.57;100.00;100664.44;5055888;28;19931;-78
2021/01/10 00:14:28;;;;;;;;;;;;;;;1.61;100.00;100663.44;5021577;28;20011;-78
2021/01/10 00:16:54;;;;;;;;;;;;;;;1.52;100.00;100648.88;5038202;28;19948;-78
2021/01/10 00:19:20;;;;;;;;;;;;;;;1.51;100.00;100652.78;5055769;28;20307;-78
2021/01/10 00:21:47;;;;;;;;;;;;;;;1.53;100.00;100664.25;5054595;28;19924;-78
2021/01/10 00:24:13;;;;;;;;;;;;;;;1.54;100.00;100660.38;5037800;28;20269;-78
2021/01/10 00:26:40;;;;;;;;;;;;;;;1.51;100.00;100661.03;5054384;28;19931;-78
2021/01/10 00:29:07;;;;;;;;;;;;;;;1.54;100.00;100660.38;5021412;28;20011;-79
2021/01/10 00:31:34;;;;;;;;;;;;;;;1.64;100.00;100662.81;5021241;28;19925;-78
2021/01/10 00:34:01;;;;;;;;;;;;;;;1.70;100.00;100664.25;5021418;28;19924;-79
2021/01/10 00:36:32;;;;;;;;;;;;;;;1.71;100.00;100676.88;5054065;28;19929;-78
2021/01/10 00:38:59;;;;;;;;;;;;;;;1.71;100.00;100660.34;5038084;28;19925;-78
2021/01/10 00:41:25;;;;;;;;;;;;;;;1.71;100.00;100667.81;5055399;28;19925;-78
2021/01/10 00:43:52;;;;;;;;;;;;;;;1.63;100.00;100663.13;5037265;28;19942;-79
2021/01/10 00:46:19;;;;;;;;;;;;;;;1.57;100.00;100653.41;5037323;28;20015;-78
2021/01/10 00:48:46;;;;;;;;;;;;;;;1.60;100.00;100647.25;5054083;28;19925;-79
2021/01/10 00:51:13;;;;;;;;;;;;;;;1.61;100.00;100649.69;5054000;28;19932;-79
2021/01/10 00:53:40;;;;;;;;;;;;;;;1.62;100.00;100645.78;5053962;28;20471;-79
2021/01/10 00:56:08;;;;;;;;;;;;;;;1.63;100.00;100650.16;5020591;28;20335;-78
2021/01/10 00:58:34;;;;;;;;;;;;;;;1.65;100.00;100636.06;5053792;28;20003;-78
2021/01/10 01:01:02;;;;;;;;;;;;;;;1.64;100.00;100638.00;5053807;28;19929;-78
2021/01/10 01:03:29;;;;;;;;;;;;;;;1.73;100.00;100636.03;5053389;28;19932;-79
2021/01/10 01:05:56;;;;;;;;;;;;;;;1.75;100.00;100625.50;5053568;28;20284;-79
2021/01/10 01:08:23;;;;;;;;;;;;;;;1.66;100.00;100632.16;5037252;28;20007;-79
2021/01/10 01:10:51;;;;;;;;;;;;;;;1.56;100.00;100627.78;5053224;28;19925;-78
2021/01/10 01:13:17;;;;;;;;;;;;;;;1.53;100.00;100635.91;5036851;28;19925;-79
2021/01/10 01:15:50;;;;;;;;;;;;;;;1.48;100.00;100631.38;5054724;28;19943;-79
2021/01/10 01:18:20;;;;;;;;;;;;;;;1.49;100.00;100641.25;5054825;28;20022;-78
2021/01/10 01:20:46;;;;;;;;;;;;;;;1.50;100.00;100637.38;5053534;28;19932;-79
2021/01/10 01:23:13;;;;;;;;;;;;;;;1.48;100.00;100625.06;5036848;28;19925;-79
2021/01/10 01:25:41;;;;;;;;;;;;;;;1.46;100.00;100625.38;5053031;28;19929;-79
2021/01/10 01:28:08;;;;;;;;;;;;;;;1.43;100.00;100630.72;5020224;28;19932;-79
2021/01/10 01:30:34;;;;;;;;;;;;;;;1.41;100.00;100627.47;5053188;28;20019;-79
2021/01/10 01:33:01;;;;;;;;;;;;;;;1.38;100.00;100630.88;5036647;28;19925;-79
2021/01/10 01:35:27;;;;;;;;;;;;;;;1.40;100.00;100617.59;5053163;28;20368;-79
2021/01/10 01:37:54;;;;;;;;;;;;;;;1.36;100.00;100614.69;5053066;28;19931;-79
2021/01/10 01:40:20;;;;;;;;;;;;;;;1.38;100.00;100601.41;5053082;28;19971;-79
2021/01/10 01:42:47;;;;;;;;;;;;;;;1.37;100.00;100621.84;5052975;28;19935;-79
2021/01/10 01:45:13;;;;;;;;;;;;;;;1.30;100.00;100620.72;5036569;28;20023;-79
2021/01/10 01:47:41;;;;;;;;;;;;;;;1.26;100.00;100623.28;5036454;28;19925;-79
2021/01/10 01:50:08;;;;;;;;;;;;;;;1.28;100.00;100618.28;5052852;28;19932;-79
2021/01/10 01:52:34;;;;;;;;;;;;;;;1.30;100.00;100638.00;5052958;28;20031;-78
2021/01/10 01:55:02;;;;;;;;;;;;;;;1.29;100.00;100633.66;5052347;28;19928;-78
2021/01/10 01:57:29;;;;;;;;;;;;;;;1.26;100.00;100641.75;5036093;28;19932;-78
2021/01/10 01:59:55;;;;;;;;;;;;;;;1.27;100.00;100646.94;5053893;28;20430;-78
2021/01/10 02:02:22;;;;;;;;;;;;;;;1.25;100.00;100651.97;5036233;28;19928;-78
2021/01/10 02:05:10;;;;;;;;;;;;;;;1.30;100.00;100665.56;5053936;28;19924;-78
2021/01/10 02:07:44;;;;;;;;;;;;;;;1.33;100.00;100651.13;5035885;28;19947;-78
2021/01/10 02:10:12;;;;;;;;;;;;;;;1.37;100.00;100682.44;5019431;28;19925;-78
2021/01/10 02:12:46;;;;;;;;;;;;;;;1.39;100.00;100671.88;5035898;28;19924;-78
2021/01/10 02:15:15;;;;;;;;;;;;;;;1.36;100.00;100664.25;5035730;28;19925;-78
2021/01/10 02:17:42;;;;;;;;;;;;;;;1.36;100.00;100674.50;5052380;28;19925;-78
2021/01/10 02:20:09;;;;;;;;;;;;;;;1.41;100.00;100674.31;5053922;28;19925;-78
2021/01/10 02:22:42;;;;;;;;;;;;;;;1.39;100.00;100671.88;5052510;28;19924;-78
2021/01/10 02:25:11;;;;;;;;;;;;;;;1.37;100.00;100668.66;5035817;28;20391;-78
2021/01/10 02:27:39;;;;;;;;;;;;;;;1.38;100.00;100659.25;5035696;28;19925;-78
2021/01/10 02:30:06;;;;;;;;;;;;;;;1.41;100.00;100677.88;5053470;28;19978;-78
2021/01/10 02:32:33;;;;;;;;;;;;;;;1.40;100.00;100683.72;5052568;28;20007;-78
2021/01/10 02:35:00;;;;;;;;;;;;;;;1.43;100.00;100675.63;5036210;28;19925;-78
2021/01/10 02:37:46;;;;;;;;;;;;;;;1.43;100.00;100692.16;5035726;28;19928;-78
2021/01/10 02:40:23;;;;;;;;;;;;;;;1.45;100.00;100687.09;5035869;28;19924;-78
2021/01/10 02:42:53;;;;;;;;;;;;;;;1.47;100.00;100681.31;5035663;28;19928;-78
2021/01/10 02:45:20;;;;;;;;;;;;;;;1.44;100.00;100671.72;5053517;28;20023;-79
2021/01/10 02:47:47;;;;;;;;;;;;;;;1.48;100.00;100682.91;5052140;28;19932;-78
2021/01/10 02:50:17;;;;;;;;;;;;;;;1.52;100.00;100679.19;5035656;28;19925;-78
2021/01/10 02:52:46;;;;;;;;;;;;;;;1.54;100.00;100687.94;5051879;28;20008;-78
2021/01/10 02:55:13;;;;;;;;;;;;;;;1.56;100.00;100685.66;5053373;28;19965;-78
2021/01/10 02:57:43;;;;;;;;;;;;;;;1.63;100.00;100680.47;5052127;28;19931;-78
2021/01/10 03:00:11;;;;;;;;;;;;;;;1.60;100.00;100683.88;5019285;28;19931;-78
2021/01/10 03:02:37;;;;;;;;;;;;;;;1.55;100.00;100677.72;5019049;28;19944;-78
2021/01/10 03:05:08;;;;;;;;;;;;;;;1.53;100.00;100675.28;5035425;28;20030;-78
2021/01/10 03:07:35;;;;;;;;;;;;;;;1.56;100.00;100688.41;5051556;28;20439;-78
2021/01/10 03:10:04;;;;;;;;;;;;;;;1.56;100.00;100685.66;5053316;28;19924;-79
2021/01/10 03:12:31;;;;;;;;;;;;;;;1.53;100.00;100675.28;5051973;28;19925;-78
2021/01/10 03:14:59;;;;;;;;;;;;;;;1.55;100.00;100683.22;5035390;28;20323;-79
2021/01/10 03:17:36;;;;;;;;;;;;;;;1.56;100.00;100674.63;5035443;28;19964;-79
2021/01/10 03:20:04;;;;;;;;;;;;;;;1.54;100.00;100663.16;5035298;28;19932;-79
2021/01/10 03:22:30;;;;;;;;;;;;;;;1.53;100.00;100667.00;5052772;28;19974;-78
2021/01/10 03:24:57;;;;;;;;;;;;;;;1.46;100.00;100666.72;5051978;28;20167;-78
2021/01/10 03:27:23;;;;;;;;;;;;;;;1.46;100.00;100663.94;5054319;28;19925;-78
2021/01/10 03:29:50;;;;;;;;;;;;;;;1.37;100.00;100663.16;5056700;28;20042;-79
2021/01/10 03:32:16;;;;;;;;;;;;;;;1.39;100.00;100663.63;5055407;28;19925;-78
2021/01/10 03:34:43;;;;;;;;;;;;;;;1.42;100.00;100662.97;5038781;28;19928;-78
2021/01/10 03:37:09;;;;;;;;;;;;;;;1.41;100.00;100666.88;5038573;28;20380;-79
2021/01/10 03:39:36;;;;;;;;;;;;;;;1.39;100.00;100669.13;5056497;28;19925;-78
2021/01/10 03:42:02;;;;;;;;;;;;;;;1.40;100.00;100673.50;5055305;28;19924;-78
2021/01/10 03:44:29;;;;;;;;;;;;;;;1.38;100.00;100678.53;5056480;28;19931;-78
2021/01/10 03:46:56;;;;;;;;;;;;;;;1.38;100.00;100695.06;5055155;28;19925;-79
2021/01/10 03:49:22;;;;;;;;;;;;;;;1.39;100.00;100696.66;5038637;28;19932;-79
2021/01/10 03:51:49;;;;;;;;;;;;;;;1.36;100.00;100702.81;5021671;28;19924;-79
2021/01/10 03:54:15;;;;;;;;;;;;;;;1.34;100.00;100704.28;5038492;28;19925;-78
2021/01/10 03:56:42;;;;;;;;;;;;;;;1.39;100.00;100701.38;5054854;28;19932;-79
2021/01/10 03:59:08;;;;;;;;;;;;;;;1.36;100.00;100713.84;5054849;28;19925;-78
2021/01/10 04:01:35;;;;;;;;;;;;;;;1.43;100.00;100710.63;5054720;28;20376;-79
2021/01/10 04:04:02;;;;;;;;;;;;;;;1.42;100.00;100720.03;5038352;28;20516;-78
2021/01/10 04:06:29;;;;;;;;;;;;;;;1.39;100.00;100713.19;5054395;28;20372;-78
2021/01/10 04:08:56;;;;;;;;;;;;;;;1.41;100.00;100716.44;5054779;28;20253;-78
2021/01/10 04:11:22;;;;;;;;;;;;;;;1.41;100.00;100721.13;5054827;28;20399;-78
2021/01/10 04:13:49;;;;;;;;;;;;;;;1.39;100.00;100723.41;5038038;28;20343;-79
2021/01/10 04:16:16;;;;;;;;;;;;;;;1.38;100.00;100722.59;5038247;28;20376;-78
2021/01/10 04:18:43;;;;;;;;;;;;;;;1.40;100.00;100723.09;5055933;28;19966;-79
2021/01/10 04:21:09;;;;;;;;;;;;;;;1.35;100.00;100730.69;5037623;28;19925;-79
2021/01/10 04:23:36;;;;;;;;;;;;;;;1.36;100.00;100730.38;5054498;28;19925;-78
2021/01/10 04:26:03;;;;;;;;;;;;;;;1.35;100.00;100734.25;5037742;28;19932;-79
2021/01/10 04:28:29;;;;;;;;;;;;;;;1.34;100.00;100727.16;5054476;28;20361;-79
2021/01/10 04:30:56;;;;;;;;;;;;;;;1.33;100.00;100728.25;5055542;28;19933;-78
2021/01/10 04:33:23;;;;;;;;;;;;;;;1.30;100.00;100720.63;5054501;28;19925;-78
2021/01/10 04:35:49;;;;;;;;;;;;;;;1.31;100.00;100722.28;5053971;28;20360;-79
2021/01/10 04:38:16;;;;;;;;;;;;;;;1.36;100.00;100722.09;5037316;28;19924;-79
2021/01/10 04:40:43;;;;;;;;;;;;;;;1.32;100.00;100718.38;5054276;28;20387;-79
2021/01/10 04:43:10;;;;;;;;;;;;;;;1.32;100.00;100723.06;5054201;28;20360;-79
2021/01/10 04:45:37;;;;;;;;;;;;;;;1.39;100.00;100726.97;5037700;28;19925;-79
2021/01/10 04:48:05;;;;;;;;;;;;;;;1.47;100.00;100736.41;5054060;28;19924;-79
2021/01/10 04:50:33;;;;;;;;;;;;;;;1.53;100.00;100735.88;5055275;28;19928;-79
2021/01/10 04:53:01;;;;;;;;;;;;;;;1.58;100.00;100749.53;5037387;28;20031;-79
2021/01/10 04:55:29;;;;;;;;;;;;;;;1.56;100.00;100746.25;5037443;28;19928;-78
2021/01/10 04:58:06;;;;;;;;;;;;;;;1.57;100.00;100758.94;5053943;28;19932;-79
2021/01/10 05:00:33;;;;;;;;;;;;;;;1.60;100.00;100761.03;5055436;28;19925;-79
2021/01/10 05:03:05;;;;;;;;;;;;;;;1.61;100.00;100767.34;5036891;28;19970;-79
2021/01/10 05:05:33;;;;;;;;;;;;;;;1.64;100.00;100769.44;5055090;28;19963;-79
2021/01/10 05:08:00;;;;;;;;;;;;;;;1.74;100.00;100783.72;5053143;28;20356;-79
2021/01/10 05:10:26;;;;;;;;;;;;;;;1.76;100.00;100778.69;5037123;28;20000;-78
2021/01/10 05:12:53;;;;;;;;;;;;;;;1.72;100.00;100783.25;5054835;28;19925;-78
2021/01/10 05:15:19;;;;;;;;;;;;;;;1.62;100.00;100783.53;5037081;28;19925;-78
2021/01/10 05:17:53;;;;;;;;;;;;;;;1.56;100.00;100784.84;5054384;28;19925;-78
2021/01/10 05:20:20;;;;;;;;;;;;;;;1.60;100.00;100788.59;5020456;28;19926;-79
2021/01/10 05:22:50;;;;;;;;;;;;;;;1.57;100.00;100789.25;5020477;28;19925;-78
2021/01/10 05:25:17;;;;;;;;;;;;;;;1.74;100.00;100794.75;5053449;28;19929;-78
2021/01/10 05:27:47;;;;;;;;;;;;;;;1.77;100.00;100794.09;5036548;28;19924;-78
2021/01/10 05:30:14;;;;;;;;;;;;;;;1.73;100.00;100797.81;5020397;28;19925;-78
2021/01/10 05:32:41;;;;;;;;;;;;;;;1.66;100.00;100800.25;5052956;28;19933;-78
2021/01/10 05:35:08;;;;;;;;;;;;;;;1.65;100.00;100802.19;5053096;28;20360;-78
2021/01/10 05:37:36;;;;;;;;;;;;;;;1.56;100.00;100817.91;5053122;28;20436;-78
2021/01/10 05:40:05;;;;;;;;;;;;;;;1.57;100.00;100805.78;5036548;28;19931;-79
2021/01/10 05:42:33;;;;;;;;;;;;;;;1.52;100.00;100811.44;5036480;28;20019;-79
2021/01/10 05:45:00;;;;;;;;;;;;;;;1.48;100.00;100804.94;5052999;28;19925;-79
2021/01/10 05:47:37;;;;;;;;;;;;;;;1.59;100.00;100805.44;5052699;28;19951;-79
2021/01/10 05:50:12;;;;;;;;;;;;;;;1.53;100.00;100807.53;5035474;28;20002;-79
2021/01/10 05:52:39;;;;;;;;;;;;;;;1.33;100.00;100797.13;5054006;28;20451;-78
2021/01/10 05:55:08;;;;;;;;;;;;;;;1.35;100.00;100811.38;5053990;28;19924;-78
2021/01/10 05:57:35;;;;;;;;;;;;;;;1.47;100.00;100817.09;5052753;28;19924;-78
2021/01/10 06:00:04;;;;;;;;;;;;;;;1.41;100.00;100804.59;5052878;28;19925;-78
2021/01/10 06:02:33;;;;;;;;;;;;;;;1.29;100.00;100807.16;5053607;28;19925;-78
2021/01/10 06:05:13;;;;;;;;;;;;;;;1.28;100.00;100801.97;5054057;28;19987;-78
2021/01/10 06:07:40;;;;;;;;;;;;;;;1.17;100.00;100793.19;5035771;28;19931;-78
2021/01/10 06:10:08;;;;;;;;;;;;;;;1.22;100.00;100783.97;5052416;28;19928;-78
2021/01/10 06:12:34;;;;;;;;;;;;;;;1.24;100.00;100799.03;5036300;28;20386;-78
2021/01/10 06:15:15;;;;;;;;;;;;;;;1.33;100.00;100802.63;5052650;28;20016;-78
2021/01/10 06:17:46;;;;;;;;;;;;;;;1.17;100.00;100778.59;5052577;28;19932;-78
2021/01/10 06:20:31;;;;;;;;;;;;;;;1.13;100.00;100764.69;5036125;28;19925;-78
2021/01/10 06:22:58;;;;;;;;;;;;;;;1.27;100.00;100781.88;5053908;28;20043;-78
2021/01/10 06:25:26;;;;;;;;;;;;;;;1.23;100.00;100775.38;5052623;28;19979;-78
2021/01/10 06:28:07;;;;;;;;;;;;;;;1.33;100.00;100790.81;5052455;28;19947;-78
2021/01/10 06:30:35;;;;;;;;;;;;;;;1.32;100.00;100784.47;5052339;28;19932;-78
2021/01/10 06:33:05;;;;;;;;;;;;;;;1.39;100.00;100786.78;5052720;28;20326;-78
2021/01/10 06:35:35;;;;;;;;;;;;;;;1.26;100.00;100785.78;5019400;28;19924;-78
2021/01/10 06:38:03;;;;;;;;;;;;;;;1.35;100.00;100783.84;5052413;28;19925;-78
2021/01/10 06:40:31;;;;;;;;;;;;;;;1.39;100.00;100784.81;5053632;28;19924;-78
2021/01/10 06:43:00;;;;;;;;;;;;;;;1.41;100.00;100785.31;5036119;28;19955;-78
2021/01/10 06:45:28;;;;;;;;;;;;;;;1.41;100.00;100777.03;5019240;28;20323;-78
2021/01/10 06:47:55;;;;;;;;;;;;;;;1.39;100.00;100778.50;5035706;28;19968;-78
2021/01/10 06:50:21;;;;;;;;;;;;;;;1.45;100.00;100785.50;5052310;28;19932;-78
2021/01/10 06:52:49;;;;;;;;;;;;;;;1.44;100.00;100765.38;5036024;28;20019;-78
2021/01/10 06:55:17;;;;;;;;;;;;;;;1.39;100.00;100784.03;5052485;28;19971;-78
2021/01/10 06:57:43;;;;;;;;;;;;;;;1.45;100.00;100780.75;5053330;28;19925;-78
2021/01/10 07:00:10;;;;;;;;;;;;;;;1.42;100.00;100781.41;5002692;28;19972;-78
2021/01/10 07:03:04;;;;;;;;;;;;;;;1.48;100.00;100787.59;5055313;28;19925;-78
2021/01/10 07:05:49;;;;;;;;;;;;;;;1.40;100.00;100783.69;5039514;28;19924;-78
2021/01/10 07:08:31;;;;;;;;;;;;;;;1.46;100.00;100785.16;5057083;28;19925;-78
2021/01/10 07:11:17;;;;;;;;;;;;;;;1.51;100.00;100796.03;5039549;28;19928;-78
2021/01/10 07:13:43;;;;;;;;;;;;;;;1.46;100.00;100800.88;5055564;28;19925;-78
2021/01/10 07:16:17;;;;;;;;;;;;;;;1.52;100.00;100805.09;5055697;28;19978;-78
2021/01/10 07:18:50;;;;;;;;;;;;;;;1.54;100.00;100819.38;5055802;28;20364;-78
2021/01/10 07:21:28;;;;;;;;;;;;;;;1.61;100.00;100839.81;5022827;28;19924;-78
2021/01/10 07:24:20;;;;;;;;;;;;;;;1.67;100.00;100856.97;5055740;28;19925;-78
2021/01/10 07:26:47;;;;;;;;;;;;;;;1.77;100.00;100874.03;5022699;28;19940;-78
2021/01/10 07:29:29;;;;;;;;;;;;;;;1.79;100.00;100901.25;5038840;28;19925;-78
2021/01/10 07:31:56;;;;;;;;;;;;;;;1.79;100.00;100904.84;5022589;28;19931;-78
2021/01/10 07:34:23;;;;;;;;;;;;;;;1.92;100.00;100951.91;5022537;28;20066;-78
2021/01/10 07:36:51;;;;;;;;;;;;;;;1.99;100.00;100985.31;5038675;28;19932;-78
2021/01/10 07:39:19;;;;;;;;;;;;;;;1.99;100.00;101023.91;5055349;28;19929;-78
2021/01/10 07:41:46;;;;;;;;;;;;;;;2.08;100.00;101057.84;5056495;28;19931;-78
2021/01/10 07:44:13;;;;;;;;;;;;;;;2.03;100.00;101107.66;5055040;28;19952;-78
2021/01/10 07:46:52;;;;;;;;;;;;;;;2.12;100.00;101155.38;5056213;28;19925;-77
2021/01/10 07:49:20;;;;;;;;;;;;;;;2.12;100.00;101205.03;5055209;28;20012;-80
2021/01/10 07:51:46;;;;;;;;;;;;;;;2.13;100.00;101251.59;5056506;28;19932;-78
2021/01/10 07:54:16;;;;;;;;;;;;;;;2.05;100.00;101292.88;5054869;28;20026;-78
2021/01/10 07:56:43;;;;;;;;;;;;;;;1.94;100.00;101341.16;5038364;28;20020;-78
2021/01/10 07:59:16;;;;;;;;;;;;;;;1.88;100.00;101390.06;5054843;28;19929;-79
2021/01/10 08:01:50;;;;;;;;;;;;;;;1.82;100.00;101424.41;5054663;28;20486;-78
2021/01/10 08:04:30;;;;;;;;;;;;;;;1.80;100.00;101432.97;5054003;28;19925;-78
2021/01/10 08:06:57;;;;;;;;;;;;;;;1.78;100.00;101449.03;5055045;28;20402;-78
2021/01/10 08:09:31;;;;;;;;;;;;;;;1.77;100.00;101452.88;5054069;28;19925;-78
2021/01/10 08:11:58;;;;;;;;;;;;;;;1.80;100.00;101441.25;5053477;28;19928;-78
2021/01/10 08:14:25;;;;;;;;;;;;;;;1.81;100.00;101360.19;5036575;28;19967;-79
2021/01/10 08:16:51;;;;;;;;;;;;;;;1.86;100.00;101343.50;5053854;28;19932;-79
2021/01/10 08:19:18;;;;;;;;;;;;;;;1.80;100.00;101343.97;5053793;28;20397;-79
2021/01/10 08:21:44;;;;;;;;;;;;;;;1.92;100.00;101354.44;5020635;28;20368;-79
2021/01/10 08:24:11;;;;;;;;;;;;;;;1.95;100.00;101337.25;5053605;28;20392;-78
2021/01/10 08:26:39;;;;;;;;;;;;;;;1.88;100.00;101338.50;5053208;28;19994;-78
2021/01/10 08:29:08;;;;;;;;;;;;;;;1.92;100.00;101335.13;5037130;28;19964;-79
2021/01/10 08:31:36;;;;;;;;;;;;;;;2.00;100.00;101326.91;5020451;28;19925;-79
2021/01/10 08:34:06;;;;;;;;;;;;;;;1.97;100.00;101340.53;5053318;28;19924;-79
2021/01/10 08:36:34;;;;;;;;;;;;;;;2.07;100.00;101337.53;5036964;28;19932;-79
2021/01/10 08:39:08;;;;;;;;;;;;;;;2.18;100.00;101330.66;5036834;28;20399;-79
2021/01/10 08:41:36;;;;;;;;;;;;;;;2.20;100.00;101309.88;5053166;28;19928;-79
2021/01/10 08:44:03;;;;;;;;;;;;;;;2.24;100.00;101296.28;5053222;28;20372;-79
2021/01/10 08:46:32;;;;;;;;;;;;;;;2.19;100.00;101271.56;5053195;28;20380;-78
2021/01/10 08:49:00;;;;;;;;;;;;;;;2.25;100.00;101267.56;5036628;28;20019;-81
2021/01/10 08:51:30;;;;;;;;;;;;;;;2.26;100.00;101253.44;5036839;28;19932;-79
2021/01/10 08:53:56;;;;;;;;;;;;;;;2.25;100.00;101248.25;5053025;28;20303;-78
2021/01/10 08:56:23;;;;;;;;;;;;;;;2.33;100.00;101242.78;5053940;28;19924;-78
2021/01/10 08:58:53;;;;;;;;;;;;;;;2.34;100.00;101247.16;5036686;28;20299;-78
2021/01/10 09:01:21;;;;;;;;;;;;;;;2.38;100.00;101230.81;5052983;28;19924;-79
2021/01/10 09:04:23;;;;;;;;;;;;;;;2.41;100.00;101224.66;5036203;28;19952;-78
2021/01/10 09:06:56;;;;;;;;;;;;;;;2.45;100.00;101214.59;5051490;28;19925;-77
2021/01/10 09:09:32;;;;;;;;;;;;;;;2.55;100.00;101211.53;5051507;28;19929;-77
2021/01/10 09:12:17;;;;;;;;;;;;;;;2.58;100.00;101188.81;5035030;28;19932;-78
2021/01/10 09:14:54;;;;;;;;;;;;;;;2.67;100.00;101167.59;5002251;28;19924;-78
2021/01/10 09:17:29;;;;;;;;;;;;;;;2.68;100.00;101136.09;5035029;28;19936;-78
2021/01/10 09:20:00;;;;;;;;;;;;;;;2.68;100.00;101116.78;5018389;28;19932;-78
2021/01/10 09:22:28;;;;;;;;;;;;;;;2.65;100.00;101104.41;5034922;28;20320;-78
2021/01/10 09:24:55;;;;;;;;;;;;;;;2.71;100.00;101091.28;5034453;28;19929;-76
2021/01/10 09:27:23;;;;;;;;;;;;;;;2.77;100.00;101081.72;5051275;28;19932;-77
2021/01/10 09:29:49;;;;;;;;;;;;;;;2.71;100.00;101074.72;5031674;28;19928;-76
2021/01/10 09:32:19;;;;;;;;;;;;;;;2.76;100.00;101056.03;5040348;28;19972;-76
2021/01/10 09:34:53;;;;;;;;;;;;;;;2.74;100.00;101038.97;5028506;28;19951;-76
2021/01/10 09:37:25;;;;;;;;;;;;;;;2.81;100.00;101030.22;5029102;28;19924;-76
2021/01/10 09:39:51;;;;;;;;;;;;;;;2.74;100.00;101003.09;5045233;28;20335;-76
2021/01/10 09:42:19;;;;;;;;;;;;;;;2.77;100.00;100993.38;5046962;28;20446;-76
2021/01/10 09:44:53;;;;;;;;;;;;;;;2.73;100.00;100984.09;5049299;28;19978;-76
2021/01/10 09:47:41;;;;;;;;;;;;;;;2.79;100.00;100988.31;5047520;28;19925;-75
2021/01/10 09:50:09;;;;;;;;;;;;;;;2.75;100.00;100977.13;5041552;28;19925;-75
2021/01/10 09:52:45;;;;;;;;;;;;;;;2.70;100.00;100960.72;5047703;28;19932;-74
2021/01/10 09:55:12;;;;;;;;;;;;;;;2.77;100.00;100951.97;5015614;28;20010;-74
2021/01/10 09:57:39;;;;;;;;;;;;;;;2.76;100.00;100948.38;5030246;28;19925;-75
2021/01/10 10:00:08;;;;;;;;;;;;;;;2.75;100.00;100932.97;5031716;28;19935;-74
2021/01/10 10:02:41;;;;;;;;;;;;;;;2.72;100.00;100930.84;5065515;28;19932;-74
2021/01/10 10:05:12;;;;;;;;;;;;;;;2.76;100.00;100915.25;5052652;28;19929;-74
2021/01/10 10:07:41;;;;;;;;;;;;;;;2.67;100.00;100914.44;5051297;28;20200;-74
2021/01/10 10:10:17;;;;;;;;;;;;;;;2.69;100.00;100892.03;5053630;28;19951;-74
2021/01/10 10:13:04;;;;;;;;;;;;;;;2.70;100.00;100880.66;5069271;28;19925;-74
2021/01/10 10:15:38;;;;;;;;;;;;;;;2.74;100.00;100886.34;5052332;28;19979;-74
2021/01/10 10:18:05;;;;;;;;;;;;;;;2.70;100.00;100860.53;5052399;28;19928;-74
2021/01/10 10:20:32;;;;;;;;;;;;;;;2.77;100.00;100863.63;5019398;28;19978;-77
2021/01/10 10:23:15;;;;;;;;;;;;;;;2.81;100.00;100842.47;5052066;28;19929;-78
2021/01/10 10:25:42;;;;;;;;;;;;;;;2.82;100.00;100827.53;5052261;28;19931;-75
2021/01/10 10:28:09;;;;;;;;;;;;;;;2.87;100.00;100821.84;5035827;28;20010;-75
2021/01/10 10:30:37;;;;;;;;;;;;;;;2.88;100.00;100813.22;5052440;28;19925;-75
2021/01/10 10:33:04;;;;;;;;;;;;;;;2.92;100.00;100810.63;5053577;28;19925;-75
2021/01/10 10:35:31;;;;;;;;;;;;;;;2.97;100.00;100804.91;5052048;28;19931;-75
2021/01/10 10:37:58;;;;;;;;;;;;;;;2.90;100.00;100790.78;5043392;28;19939;-75
2021/01/10 10:40:24;;;;;;;;;;;;;;;2.99;100.00;100783.28;5047118;28;19925;-74
2021/01/10 10:42:51;;;;;;;;;;;;;;;2.95;100.00;100774.88;5033355;28;19972;-74
2021/01/10 10:45:17;;;;;;;;;;;;;;;3.01;100.00;100765.25;5033683;28;20380;-75
2021/01/10 10:47:44;;;;;;;;;;;;;;;3.00;100.00;100760.06;5052183;28;19925;-74
2021/01/10 10:50:11;;;;;;;;;;;;;;;3.00;100.00;100735.22;5049719;28;20001;-74
2021/01/10 10:52:37;;;;;;;;;;;;;;;3.10;100.00;100734.81;5050512;28;19928;-75
2021/01/10 10:55:04;;;;;;;;;;;;;;;3.23;100.00;100739.28;5054214;28;19928;-74
2021/01/10 10:57:31;;;;;;;;;;;;;;;3.35;100.00;100723.59;5049525;28;19948;-74
2021/01/10 10:59:58;;;;;;;;;;;;;;;3.39;100.00;100720.97;5049325;28;20291;-74
2021/01/10 11:02:25;;;;;;;;;;;;;;;3.40;100.00;100711.53;5067029;28;19924;-74
2021/01/10 11:04:51;;;;;;;;;;;;;;;3.41;100.00;100707.63;5067051;28;19925;-74
2021/01/10 11:07:18;;;;;;;;;;;;;;;3.47;100.00;100689.69;5049620;28;19931;-74
2021/01/10 11:09:45;;;;;;;;;;;;;;;3.38;100.00;100692.53;5032462;28;19928;-74
2021/01/10 11:12:13;;;;;;;;;;;;;;;3.37;100.00;100687.34;5033105;28;19928;-74
2021/01/10 11:14:40;;;;;;;;;;;;;;;3.34;100.00;100688.03;5051950;28;19925;-74
2021/01/10 11:17:07;;;;;;;;;;;;;;;3.32;100.00;100682.81;5050490;28;19924;-74
2021/01/10 11:19:33;;;;;;;;;;;;;;;3.25;100.00;100676.22;5052456;28;19932;-74
2021/01/10 11:22:00;;;;;;;;;;;;;;;3.21;100.00;100667.78;5051531;28;19982;-74
2021/01/10 11:24:27;;;;;;;;;;;;;;;3.21;100.00;100653.97;5052341;28;19924;-74
2021/01/10 11:26:53;;;;;;;;;;;;;;;3.23;100.00;100656.41;5050785;28;19936;-75
2021/01/10 11:29:20;;;;;;;;;;;;;;;3.20;100.00;100646.03;5035256;28;19925;-73
2021/01/10 11:31:47;;;;;;;;;;;;;;;3.27;100.00;100640.78;5040735;28;19992;-74
2021/01/10 11:34:14;;;;;;;;;;;;;;;3.32;100.00;100632.28;5047605;28;20376;-74
2021/01/10 11:36:42;;;;;;;;;;;;;;;3.37;100.00;100623.78;5052044;28;20451;-74
2021/01/10 11:39:08;;;;;;;;;;;;;;;3.38;100.00;100615.16;5050288;28;20304;-75
2021/01/10 11:41:35;;;;;;;;;;;;;;;3.26;100.00;100609.56;5051209;28;19925;-74
2021/01/10 11:44:02;;;;;;;;;;;;;;;3.20;100.00;100610.13;5050812;28;19931;-74
2021/01/10 11:46:28;;;;;;;;;;;;;;;3.22;100.00;100588.50;5051820;28;19939;-74
2021/01/10 11:48:55;;;;;;;;;;;;;;;3.26;100.00;100584.72;5051028;28;20458;-73
2021/01/10 11:51:22;;;;;;;;;;;;;;;3.26;100.00;100579.19;5050328;28;19925;-74
2021/01/10 11:53:48;;;;;;;;;;;;;;;3.37;100.00;100563.81;5051986;28;19938;-75
2021/01/10 11:56:15;;;;;;;;;;;;;;;3.37;100.00;100572.09;5051811;28;19925;-74
2021/01/10 11:58:42;;;;;;;;;;;;;;;3.42;100.00;100560.03;5051789;28;19925;-74
2021/01/10 12:01:09;;;;;;;;;;;;;;;3.42;100.00;100557.28;5046438;28;19960;-75
2021/01/10 12:03:35;;;;;;;;;;;;;;;3.47;100.00;100545.97;5051430;28;19931;-74
2021/01/10 12:06:03;;;;;;;;;;;;;;;3.45;100.00;100538.03;5033092;28;20277;-74
2021/01/10 12:08:29;;;;;;;;;;;;;;;3.49;100.00;100527.13;5033447;28;19925;-74
2021/01/10 12:10:56;;;;;;;;;;;;;;;3.49;100.00;100518.81;5050447;28;19929;-74
2021/01/10 12:13:23;;;;;;;;;;;;;;;3.54;100.00;100518.63;5050708;28;19935;-74
2021/01/10 12:15:50;;;;;;;;;;;;;;;3.54;100.00;100518.63;5034090;28;20316;-74
2021/01/10 12:18:16;;;;;;;;;;;;;;;3.59;100.00;100505.38;5049315;28;19929;-74
2021/01/10 12:20:43;;;;;;;;;;;;;;;3.62;100.00;100503.88;5049971;28;19924;-74
2021/01/10 12:23:10;;;;;;;;;;;;;;;3.61;100.00;100485.69;5051439;28;19940;-77
2021/01/10 12:25:37;;;;;;;;;;;;;;;3.53;100.00;100484.63;5049777;28;19925;-74
2021/01/10 12:28:06;;;;;;;;;;;;;;;3.51;100.00;100475.09;5049636;28;19947;-73
2021/01/10 12:30:33;;;;;;;;;;;;;;;3.50;100.00;100478.97;5050428;28;19955;-73
2021/01/10 12:33:00;;;;;;;;;;;;;;;3.49;100.00;100460.78;5048948;28;19929;-74
2021/01/10 12:35:26;;;;;;;;;;;;;;;3.50;100.00;100462.38;5049722;28;19966;-73
2021/01/10 12:37:53;;;;;;;;;;;;;;;3.45;100.00;100454.34;5013673;28;19932;-74
2021/01/10 12:40:19;;;;;;;;;;;;;;;3.49;100.00;100453.31;5049802;28;20319;-74
2021/01/10 12:42:47;;;;;;;;;;;;;;;3.48;100.00;100453.66;5049613;28;19924;-75
2021/01/10 12:45:14;;;;;;;;;;;;;;;3.44;100.00;100447.19;5049610;28;20639;-74